MET'MAP v2.0
soon released !

Expected late october,
this new version will be
more efficient, smarter,
and hosted on a brand new
server x3 powerfull...
...and still free !


Not compatible ?
Try the mobile version !

LOG IN : | Subscribe | Disclaimer | Who is Orbifly ? |
ICAO code :

TAF - EPSN Swidwin - 27 Feb 2020 02:21 UTC - Data Source NOAA   


- Airport Elevation : 385 ft
- No reported NOTAMs.


EPSN - Swidwin

NO METAR
TAF TAF EPSN
Valid from the 27 at 00:00 until the 27 at 09:00 UTC


262300Z 2700/2709 28010KT 9999 BKN020
TEMPO 2700/2709 2500 SHRASN BKN005 BKN010CB

Source NOAA


MET'MAP, your aeronautical weather chart ! - Copyright ORBIFLY December 2007

Programming & Development : Alexandra Zaïnal
Co-Developer : Marc-Olivier Méhu
Technical & hardware support : Manuel Goepfert
Concept & Financing : Baudouin d'Aumeries